Time;durP1;ratioP1;P1;durP2;ratioP2;P2;SDS_P1;SDS_P2;PMS_P1;PMS_P2;Temp;Humidity;BMP_temperature;BMP_pressure;BME280_temperature;BME280_humidity;BME280_pressure;Samples;Min_cycle;Max_cycle;Signal;HPM_P1;HPM_P2
2024/01/20 00:01:41;;;;;;;15.73;11.20;;;;;;;-1.21;71.06;99701.66;5010572;28;103275;-73
2024/01/20 00:04:10;;;;;;;16.98;12.85;;;;;;;-1.23;70.79;99703.50;5017706;27;103167;-73
2024/01/20 00:06:39;;;;;;;25.70;14.65;;;;;;;-1.23;70.73;99693.13;5011300;28;103834;-74
2024/01/20 00:09:10;;;;;;;19.13;12.00;;;;;;;-1.22;70.80;99702.59;5012813;28;103999;-73
2024/01/20 00:11:40;;;;;;;22.25;15.27;;;;;;;-1.33;70.62;99695.25;5001352;28;104420;-74
2024/01/20 00:14:08;;;;;;;19.08;13.38;;;;;;;-1.36;70.73;99697.19;5004789;28;103244;-74
2024/01/20 00:16:36;;;;;;;21.55;13.90;;;;;;;-1.36;70.75;99689.38;5011710;28;102666;-73
2024/01/20 00:19:04;;;;;;;17.70;12.73;;;;;;;-1.45;70.74;99695.81;5008072;28;102620;-74
2024/01/20 00:21:32;;;;;;;16.10;11.80;;;;;;;-1.37;71.16;99700.69;5017684;28;103740;-74
2024/01/20 00:24:02;;;;;;;28.10;15.70;;;;;;;-1.28;70.71;99702.88;5006192;28;102667;-73
2024/01/20 00:26:30;;;;;;;17.27;11.98;;;;;;;-1.31;69.98;99705.63;5012808;28;102631;-72
2024/01/20 00:28:59;;;;;;;20.40;14.05;;;;;;;-1.26;70.33;99698.44;5008296;28;104160;-75
2024/01/20 00:31:27;;;;;;;15.80;11.15;;;;;;;-1.27;70.79;99690.72;5010291;28;103998;-74
2024/01/20 00:33:57;;;;;;;21.50;14.73;;;;;;;-1.19;70.55;99693.84;5007087;28;102598;-74
2024/01/20 00:36:25;;;;;;;23.30;16.85;;;;;;;-1.22;70.88;99692.22;4992837;28;103074;-74
2024/01/20 00:38:53;;;;;;;18.52;13.38;;;;;;;-1.38;70.79;99696.38;4996698;28;102796;-75
2024/01/20 00:41:22;;;;;;;23.58;14.20;;;;;;;-1.30;70.84;99690.84;4990764;28;104248;-74
2024/01/20 00:43:50;;;;;;;15.95;11.90;;;;;;;-1.39;71.11;99692.09;5016097;28;103347;-74
2024/01/20 00:46:18;;;;;;;16.42;12.25;;;;;;;-1.50;70.86;99703.81;4990917;28;102717;-74
2024/01/20 00:48:46;;;;;;;19.08;12.27;;;;;;;-1.44;70.84;99691.44;4992432;28;103665;-74
2024/01/20 00:51:14;;;;;;;19.23;13.10;;;;;;;-1.41;70.38;99701.72;5011119;28;103916;-74
2024/01/20 00:53:42;;;;;;;17.83;12.93;;;;;;;-1.40;70.17;99706.00;5013423;28;103711;-75
2024/01/20 00:56:10;;;;;;;18.35;14.13;;;;;;;-1.42;70.86;99713.03;5019968;28;102664;-74
2024/01/20 00:58:39;;;;;;;14.32;11.10;;;;;;;-1.44;70.86;99702.72;4991427;28;103031;-74
2024/01/20 01:01:07;;;;;;;17.65;12.77;;;;;;;-1.35;71.35;99709.25;5009697;28;102962;-74
2024/01/20 01:03:36;;;;;;;14.80;10.98;;;;;;;-1.32;71.07;99709.13;5009869;28;103238;-74
2024/01/20 01:06:05;;;;;;;17.77;12.18;;;;;;;-1.33;70.61;99712.63;5009819;28;102623;-74
2024/01/20 01:08:33;;;;;;;17.65;12.57;;;;;;;-1.30;70.54;99717.69;4992413;28;102639;-74
2024/01/20 01:11:01;;;;;;;18.10;11.98;;;;;;;-1.32;70.24;99711.72;5007562;28;104029;-74
2024/01/20 01:13:35;;;;;;;19.58;13.90;;;;;;;-1.37;70.99;99711.91;5008492;28;103238;-74
2024/01/20 01:16:05;;;;;;;23.10;15.02;;;;;;;-1.52;70.75;99718.63;4998725;28;102931;-74
2024/01/20 01:18:34;;;;;;;18.27;13.35;;;;;;;-1.56;71.09;99714.47;5006723;28;103847;-74
2024/01/20 01:21:02;;;;;;;19.13;12.52;;;;;;;-1.59;70.99;99717.19;5016662;28;103450;-74
2024/01/20 01:23:30;;;;;;;20.08;13.82;;;;;;;-1.64;71.37;99719.13;4990234;28;103421;-75
2024/01/20 01:25:58;;;;;;;16.88;12.13;;;;;;;-1.56;71.13;99722.28;5014422;28;102726;-74
2024/01/20 01:28:26;;;;;;;17.83;13.05;;;;;;;-1.56;71.23;99727.47;4999771;28;104243;-74
2024/01/20 01:30:54;;;;;;;18.38;13.88;;;;;;;-1.57;71.25;99732.72;4993832;28;104261;-74
2024/01/20 01:33:23;;;;;;;20.23;13.52;;;;;;;-1.73;71.40;99742.91;4989785;28;103418;-73
2024/01/20 01:35:51;;;;;;;24.00;14.43;;;;;;;-1.73;71.68;99743.78;4991331;28;106400;-74
2024/01/20 01:38:19;;;;;;;23.60;14.70;;;;;;;-1.70;70.76;99758.38;4995496;28;104158;-74
2024/01/20 01:40:47;;;;;;;20.20;13.18;;;;;;;-1.81;71.46;99752.78;5009893;28;103287;-74
2024/01/20 01:43:15;;;;;;;19.77;14.82;;;;;;;-1.85;71.58;99763.31;4987673;28;104280;-74
2024/01/20 01:45:43;;;;;;;17.52;13.15;;;;;;;-1.79;71.29;99751.81;5012950;28;102630;-74
2024/01/20 01:48:11;;;;;;;16.23;12.15;;;;;;;-1.80;71.22;99749.28;5008874;28;102833;-74
2024/01/20 01:50:41;;;;;;;21.50;15.07;;;;;;;-1.89;70.85;99745.31;4985218;28;104276;-74
2024/01/20 01:53:13;;;;;;;19.95;14.48;;;;;;;-2.01;71.30;99736.28;5008867;28;103201;-74
2024/01/20 01:55:43;;;;;;;15.55;9.90;;;;;;;-2.10;72.07;99737.47;5009620;28;102631;-74
2024/01/20 01:58:11;;;;;;;22.10;14.60;;;;;;;-2.14;71.67;99740.28;4987997;28;103933;-74
2024/01/20 02:00:39;;;;;;;18.98;10.48;;;;;;;-2.11;72.21;99745.34;4993845;28;103416;-74
2024/01/20 02:03:08;;;;;;;18.90;13.75;;;;;;;-2.06;72.07;99746.00;5003537;28;102963;-74
2024/01/20 02:05:36;;;;;;;21.83;15.88;;;;;;;-1.98;71.87;99745.69;5010800;28;102890;-74
2024/01/20 02:08:06;;;;;;;20.20;15.43;;;;;;;-2.17;72.38;99741.25;5002147;28;102638;-74
2024/01/20 02:10:35;;;;;;;21.75;15.60;;;;;;;-2.14;72.29;99745.47;5007686;28;103463;-74
2024/01/20 02:13:03;;;;;;;16.05;12.85;;;;;;;-2.01;72.34;99736.28;5016714;27;104556;-73
2024/01/20 02:15:33;;;;;;;19.15;11.18;;;;;;;-1.99;72.13;99734.47;4995197;28;102720;-74
2024/01/20 02:18:01;;;;;;;19.80;12.50;;;;;;;-1.95;72.30;99737.75;5007752;28;102694;-74
2024/01/20 02:20:29;;;;;;;22.00;12.65;;;;;;;-2.10;72.76;99732.28;5004899;28;103037;-74
2024/01/20 02:22:58;;;;;;;25.33;17.83;;;;;;;-2.04;72.20;99741.59;5021460;27;103351;-74
2024/01/20 02:25:26;;;;;;;18.20;14.23;;;;;;;-2.17;72.27;99739.47;5015776;28;102569;-74
2024/01/20 02:27:54;;;;;;;25.13;17.30;;;;;;;-2.03;72.67;99733.75;5007860;28;102737;-75
2024/01/20 02:30:22;;;;;;;24.88;17.20;;;;;;;-1.99;72.26;99734.47;5012731;28;103336;-74
2024/01/20 02:32:50;;;;;;;21.75;15.43;;;;;;;-2.01;72.21;99736.28;4989163;28;104648;-74
2024/01/20 02:35:19;;;;;;;24.63;18.60;;;;;;;-1.99;72.88;99739.66;5008826;28;102672;-74
2024/01/20 02:37:47;;;;;;;22.10;16.05;;;;;;;-1.95;72.50;99736.03;5009537;28;104118;-73
2024/01/20 02:40:17;;;;;;;23.77;17.15;;;;;;;-1.93;72.14;99739.38;5006892;28;103355;-74
2024/01/20 02:42:45;;;;;;;17.88;11.65;;;;;;;-2.03;73.09;99744.13;5010242;28;103401;-74
2024/01/20 02:45:12;;;;;;;25.58;13.77;;;;;;;-2.11;72.31;99750.53;5010030;28;102926;-73
2024/01/20 02:47:40;;;;;;;23.77;12.93;;;;;;;-2.07;73.15;99757.28;4995333;28;104585;-74
2024/01/20 02:50:09;;;;;;;23.35;15.98;;;;;;;-2.03;72.79;99764.03;4985098;28;103752;-74
2024/01/20 02:52:37;;;;;;;26.45;18.33;;;;;;;-1.98;72.34;99775.09;4989470;28;103276;-74
2024/01/20 02:55:05;;;;;;;25.65;17.75;;;;;;;-1.98;72.63;99776.84;5007631;28;102750;-74
2024/01/20 02:57:34;;;;;;;24.45;17.13;;;;;;;-2.32;73.05;99784.22;5007642;28;102704;-74
2024/01/20 03:00:04;;;;;;;18.98;12.32;;;;;;;-2.29;73.00;99784.09;4985568;28;103223;-74
2024/01/20 03:02:32;;;;;;;19.98;11.40;;;;;;;-2.26;73.28;99773.59;5007574;27;103199;-73
2024/01/20 03:05:01;;;;;;;20.17;10.75;;;;;;;-2.22;73.10;99779.53;5009625;28;102723;-75
2024/01/20 03:07:29;;;;;;;24.52;16.67;;;;;;;-2.11;72.76;99786.88;5016246;28;103839;-74
2024/01/20 03:09:57;;;;;;;21.08;15.55;;;;;;;-2.13;73.04;99783.50;5013003;28;103214;-74
2024/01/20 03:12:25;;;;;;;26.27;12.75;;;;;;;-2.20;72.75;99778.56;4998822;28;103536;-74
2024/01/20 03:14:54;;;;;;;20.73;14.30;;;;;;;-2.20;72.75;99772.50;4994235;28;102699;-75
2024/01/20 03:17:22;;;;;;;22.33;15.10;;;;;;;-2.14;72.56;99766.25;5013506;28;102721;-74
2024/01/20 03:19:50;;;;;;;24.75;17.33;;;;;;;-2.21;72.81;99771.66;5015257;28;103242;-74
2024/01/20 03:22:18;;;;;;;25.65;13.93;;;;;;;-2.27;72.64;99779.69;5014458;28;103352;-74
2024/01/20 03:24:47;;;;;;;22.63;13.15;;;;;;;-2.26;72.57;99773.59;5010336;28;102611;-74
2024/01/20 03:27:18;;;;;;;26.27;16.27;;;;;;;-2.17;72.49;99781.00;5014959;28;102654;-75
2024/01/20 03:29:46;;;;;;;24.20;15.95;;;;;;;-2.24;72.62;99787.38;4995508;28;103656;-74
2024/01/20 03:32:15;;;;;;;22.00;12.50;;;;;;;-2.31;73.01;99785.91;5000105;28;104423;-74
2024/01/20 03:34:43;;;;;;;18.52;10.77;;;;;;;-2.31;72.80;99783.31;5000339;28;102794;-74
2024/01/20 03:37:11;;;;;;;22.58;16.25;;;;;;;-2.26;73.00;99783.97;5011882;28;103842;-74
2024/01/20 03:39:38;;;;;;;31.50;21.02;;;;;;;-2.34;73.19;99781.69;4997900;28;103564;-75
2024/01/20 03:42:07;;;;;;;25.08;13.18;;;;;;;-2.32;73.63;99779.00;5013788;28;103248;-74
2024/01/20 03:44:34;;;;;;;19.92;12.23;;;;;;;-2.27;73.02;99774.50;4993284;28;102742;-74
2024/01/20 03:47:02;;;;;;;25.10;13.05;;;;;;;-2.26;72.49;99778.78;5014837;28;102651;-74
2024/01/20 03:49:34;;;;;;;22.33;13.65;;;;;;;-2.22;72.94;99785.53;4994233;28;104668;-74
2024/01/20 03:52:02;;;;;;;23.80;17.23;;;;;;;-2.19;72.38;99784.56;4993136;28;103193;-74
2024/01/20 03:54:30;;;;;;;28.00;17.83;;;;;;;-2.13;72.15;99784.34;5014522;28;102576;-74
2024/01/20 03:56:58;;;;;;;21.50;10.52;;;;;;;-2.12;72.64;99782.56;5008767;28;102646;-74
2024/01/20 03:59:26;;;;;;;17.65;10.63;;;;;;;-2.09;72.50;99785.06;5020347;28;103352;-73
2024/01/20 04:01:53;;;;;;;22.42;11.35;;;;;;;-2.07;72.30;99788.44;5012391;28;103349;-74
2024/01/20 04:04:21;;;;;;;20.98;14.50;;;;;;;-2.02;72.48;99795.16;5006572;28;102906;-74
2024/01/20 04:06:51;;;;;;;27.73;19.48;;;;;;;-1.98;72.42;99793.25;5011876;28;103260;-74
2024/01/20 04:09:19;;;;;;;27.35;19.50;;;;;;;-1.95;72.46;99793.16;5011605;28;104088;-73
2024/01/20 04:11:47;;;;;;;25.48;13.63;;;;;;;-2.00;72.25;99792.50;5010123;28;103273;-74
2024/01/20 04:14:15;;;;;;;21.80;14.48;;;;;;;-2.10;72.42;99804.13;4992428;28;103611;-74
2024/01/20 04:16:43;;;;;;;26.45;13.20;;;;;;;-2.31;73.12;99808.44;4992467;28;103825;-75
2024/01/20 04:19:11;;;;;;;24.40;17.05;;;;;;;-2.24;73.38;99800.34;5011164;28;103230;-75
2024/01/20 04:21:39;;;;;;;21.73;15.70;;;;;;;-2.21;72.52;99797.63;5009286;28;103306;-74
2024/01/20 04:24:08;;;;;;;27.08;18.55;;;;;;;-2.11;71.87;99792.94;5009042;28;102718;-75
2024/01/20 04:26:37;;;;;;;20.90;15.70;;;;;;;-2.12;72.06;99793.81;4989195;28;104237;-75
2024/01/20 04:29:04;;;;;;;22.55;15.93;;;;;;;-2.07;71.82;99804.00;5007485;28;103258;-75
2024/01/20 04:31:32;;;;;;;24.05;17.13;;;;;;;-2.08;71.94;99797.97;5011998;28;103228;-74
2024/01/20 04:34:00;;;;;;;19.27;14.23;;;;;;;-2.08;71.49;99802.34;5006915;28;102661;-74
2024/01/20 04:36:28;;;;;;;21.95;13.80;;;;;;;-2.15;71.56;99800.88;5007863;28;102706;-75
2024/01/20 04:38:56;;;;;;;24.77;14.93;;;;;;;-2.40;72.26;99818.22;5010806;28;103440;-74
2024/01/20 04:41:26;;;;;;;21.73;16.42;;;;;;;-2.32;72.23;99817.94;5015874;28;103279;-75
2024/01/20 04:43:56;;;;;;;24.60;17.33;;;;;;;-2.22;71.68;99821.03;5005027;28;102753;-74
2024/01/20 04:46:24;;;;;;;23.25;13.13;;;;;;;-2.24;72.20;99821.09;4992352;28;102724;-75
2024/01/20 04:48:52;;;;;;;22.20;13.75;;;;;;;-2.27;71.65;99821.22;5001783;28;103466;-74
2024/01/20 04:51:19;;;;;;;23.15;11.95;;;;;;;-2.26;72.37;99830.69;5009155;28;103283;-74
2024/01/20 04:53:51;;;;;;;24.17;16.58;;;;;;;-2.15;72.01;99825.06;5007180;28;102785;-75
2024/01/20 04:56:22;;;;;;;26.30;18.27;;;;;;;-2.14;72.35;99820.75;5014051;28;104063;-73
2024/01/20 04:58:53;;;;;;;22.90;17.55;;;;;;;-2.10;72.15;99822.31;5011597;28;104116;-74
2024/01/20 05:01:21;;;;;;;23.27;15.98;;;;;;;-2.13;71.93;99815.50;4992992;28;103492;-74
2024/01/20 05:03:49;;;;;;;25.85;18.00;;;;;;;-2.11;72.13;99816.28;5008377;28;102607;-74
2024/01/20 05:06:17;;;;;;;28.75;19.35;;;;;;;-2.13;71.84;99819.84;4993698;28;102649;-74
2024/01/20 05:08:45;;;;;;;21.55;16.25;;;;;;;-2.20;72.30;99819.22;4991852;28;104187;-74
2024/01/20 05:11:13;;;;;;;25.15;14.32;;;;;;;-2.35;72.43;99825.84;5000535;28;102624;-75
2024/01/20 05:13:41;;;;;;;26.00;13.88;;;;;;;-2.33;72.76;99831.84;4992119;28;102606;-75
2024/01/20 05:16:10;;;;;;;23.63;15.48;;;;;;;-2.32;72.43;99825.72;5013091;28;102805;-75
2024/01/20 05:18:38;;;;;;;25.10;19.45;;;;;;;-2.31;72.67;99829.19;5017526;28;103412;-75
2024/01/20 05:21:06;;;;;;;27.67;19.38;;;;;;;-2.28;72.71;99831.66;5005645;28;103221;-75
2024/01/20 05:23:36;;;;;;;24.40;18.00;;;;;;;-2.26;72.47;99835.03;5008164;28;103834;-75
2024/01/20 05:26:04;;;;;;;23.55;13.52;;;;;;;-2.29;72.64;99840.34;4993935;28;104092;-74
2024/01/20 05:28:34;;;;;;;29.67;21.38;;;;;;;-2.28;72.57;99837.72;4991143;28;103248;-74
2024/01/20 05:31:02;;;;;;;26.15;18.30;;;;;;;-2.28;72.26;99832.50;5005315;28;102670;-75
2024/01/20 05:33:31;;;;;;;27.40;20.23;;;;;;;-2.28;72.65;99832.50;4991582;28;103093;-74
2024/01/20 05:35:59;;;;;;;29.80;15.77;;;;;;;-2.35;72.56;99833.63;5010643;28;103974;-75
2024/01/20 05:38:27;;;;;;;26.25;14.77;;;;;;;-2.46;72.73;99839.25;4992189;28;104146;-75
2024/01/20 05:40:56;;;;;;;23.20;17.42;;;;;;;-2.43;72.86;99844.31;4996205;28;103379;-73
2024/01/20 05:43:24;;;;;;;25.75;18.58;;;;;;;-2.47;73.08;99852.28;5010278;28;102860;-75
2024/01/20 05:45:52;;;;;;;23.73;17.95;;;;;;;-2.44;73.31;99849.56;4991967;28;104283;-73
2024/01/20 05:48:21;;;;;;;21.17;13.77;;;;;;;-2.49;72.62;99854.91;5002872;28;103729;-72
2024/01/20 05:50:50;;;;;;;26.75;19.70;;;;;;;-2.37;73.17;99858.78;5004055;28;103208;-73
2024/01/20 05:53:20;;;;;;;26.25;14.18;;;;;;;-2.43;73.15;99866.81;4989236;28;104519;-75
2024/01/20 05:55:47;;;;;;;26.35;15.45;;;;;;;-2.54;72.94;99868.06;4992047;28;102869;-75
2024/01/20 05:58:15;;;;;;;24.35;14.30;;;;;;;-2.51;73.00;99857.56;4993545;28;104129;-75
2024/01/20 06:00:43;;;;;;;22.25;15.73;;;;;;;-2.40;73.13;99870.13;5007760;28;102995;-74
2024/01/20 06:03:11;;;;;;;25.15;18.13;;;;;;;-2.39;72.83;99876.19;4994373;28;102822;-74
2024/01/20 06:05:42;;;;;;;31.58;22.00;;;;;;;-2.41;72.63;99867.59;5006449;28;102702;-74
2024/01/20 06:08:12;;;;;;;29.23;16.05;;;;;;;-2.48;72.57;99871.34;4993899;28;103320;-74
2024/01/20 06:10:40;;;;;;;28.73;15.50;;;;;;;-2.55;73.60;99873.31;5004873;28;103219;-74
2024/01/20 06:13:08;;;;;;;26.63;14.55;;;;;;;-2.60;73.19;99873.47;4990797;28;102839;-74
2024/01/20 06:15:36;;;;;;;30.42;21.60;;;;;;;-2.53;73.32;99872.34;4999951;27;102893;-75
2024/01/20 06:18:04;;;;;;;28.95;18.88;;;;;;;-2.54;73.34;99878.44;5008412;28;103308;-74
2024/01/20 06:20:32;;;;;;;27.38;15.10;;;;;;;-2.61;72.72;99871.75;4991605;28;104269;-74
2024/01/20 06:23:00;;;;;;;27.65;14.32;;;;;;;-2.65;73.08;99870.19;5009128;28;102707;-75
2024/01/20 06:25:29;;;;;;;33.42;15.18;;;;;;;-2.66;73.72;99876.28;5011821;28;103883;-74
2024/01/20 06:27:57;;;;;;;28.30;15.88;;;;;;;-2.66;73.76;99889.25;5008638;28;104282;-74
2024/01/20 06:30:25;;;;;;;29.75;16.55;;;;;;;-2.69;73.56;99895.38;5004511;28;103305;-74
2024/01/20 06:32:53;;;;;;;30.65;18.38;;;;;;;-2.58;73.52;99897.63;5006302;28;102600;-74
2024/01/20 06:35:21;;;;;;;31.52;22.45;;;;;;;-2.71;73.91;99902.38;4989230;28;102664;-74
2024/01/20 06:37:49;;;;;;;30.30;21.92;;;;;;;-2.65;73.65;99901.31;5004278;28;104131;-74
2024/01/20 06:40:17;;;;;;;27.25;15.55;;;;;;;-2.66;73.50;99907.38;5007235;28;103260;-74
2024/01/20 06:42:46;;;;;;;25.25;13.75;;;;;;;-2.67;73.87;99908.31;5004829;28;102719;-75
2024/01/20 06:45:14;;;;;;;31.00;21.77;;;;;;;-2.85;73.81;99913.22;5012141;28;102958;-74
2024/01/20 06:47:42;;;;;;;26.25;15.15;;;;;;;-2.80;73.84;99917.41;5005799;28;104567;-74
2024/01/20 06:50:12;;;;;;;28.13;19.17;;;;;;;-2.71;73.76;99917.09;4993262;28;104466;-74
2024/01/20 06:52:40;;;;;;;25.25;13.85;;;;;;;-2.80;73.26;99909.63;5013009;28;102610;-73
2024/01/20 06:55:10;;;;;;;27.08;16.23;;;;;;;-2.90;73.13;99912.53;5008611;28;102667;-74
2024/01/20 06:57:40;;;;;;;24.95;14.75;;;;;;;-2.95;73.32;99911.84;4993715;28;104272;-73
2024/01/20 07:00:13;;;;;;;27.60;15.00;;;;;;;-2.97;73.44;99916.25;5009818;28;103237;-74
2024/01/20 07:02:41;;;;;;;26.63;16.08;;;;;;;-3.01;73.71;99914.69;5012500;28;102700;-75
2024/01/20 07:05:10;;;;;;;33.35;17.35;;;;;;;-2.97;73.85;99931.81;5012097;28;104845;-74
2024/01/20 07:07:38;;;;;;;22.38;16.35;;;;;;;-2.94;73.92;99939.47;5001996;28;104416;-75
2024/01/20 07:10:08;;;;;;;25.17;13.93;;;;;;;-2.87;73.56;99940.09;5006187;28;103478;-74
2024/01/20 07:12:37;;;;;;;21.67;11.57;;;;;;;-2.89;73.47;99942.75;5010626;28;102672;-74
2024/01/20 07:15:06;;;;;;;20.20;14.63;;;;;;;-2.76;73.24;99944.94;5016505;28;102884;-74
2024/01/20 07:17:36;;;;;;;22.08;12.05;;;;;;;-2.77;73.56;99953.63;5010532;28;103237;-73
2024/01/20 07:20:04;;;;;;;32.90;15.40;;;;;;;-2.77;73.38;99946.69;4993155;28;104635;-75
2024/01/20 07:22:32;;;;;;;28.55;14.10;;;;;;;-2.78;73.55;99946.72;4997407;28;102739;-76
2024/01/20 07:25:00;;;;;;;28.15;15.27;;;;;;;-2.91;73.38;99949.75;5011800;28;104565;-75
2024/01/20 07:27:28;;;;;;;25.42;14.35;;;;;;;-2.85;73.48;99957.31;5011557;28;105623;-77
2024/01/20 07:29:56;;;;;;;28.23;14.98;;;;;;;-2.84;73.74;99961.59;4996322;28;104221;-76
2024/01/20 07:32:24;;;;;;;24.90;14.38;;;;;;;-2.77;73.34;99964.00;4990234;28;102644;-76
2024/01/20 07:34:54;;;;;;;26.67;15.50;;;;;;;-2.75;73.68;99960.44;5015479;28;102592;-76
2024/01/20 07:37:22;;;;;;;27.42;15.18;;;;;;;-2.75;73.62;99967.38;5008017;28;103513;-76
2024/01/20 07:39:50;;;;;;;24.77;14.70;;;;;;;-2.89;72.55;99966.09;4993861;28;104125;-73
2024/01/20 07:42:18;;;;;;;33.28;16.45;;;;;;;-2.93;73.53;99966.25;4994390;28;102883;-72
2024/01/20 07:44:46;;;;;;;27.30;14.48;;;;;;;-2.90;73.25;99964.41;5011774;28;103701;-76
2024/01/20 07:47:15;;;;;;;23.52;14.35;;;;;;;-2.83;73.01;99973.69;4993691;28;104127;-76
2024/01/20 07:49:43;;;;;;;28.10;20.40;;;;;;;-2.75;73.39;99975.16;5006813;27;103487;-74
2024/01/20 07:52:12;;;;;;;27.73;16.10;;;;;;;-2.87;72.68;99974.69;5009228;28;102717;-74
2024/01/20 07:54:40;;;;;;;23.02;12.13;;;;;;;-2.81;72.90;99980.56;4996162;28;102608;-76
2024/01/20 07:57:09;;;;;;;30.50;17.23;;;;;;;-2.85;72.62;99980.66;4996001;28;103120;-76
2024/01/20 07:59:37;;;;;;;27.25;16.65;;;;;;;-2.84;73.23;99984.09;5009265;28;103115;-77
2024/01/20 08:02:05;;;;;;;30.08;15.63;;;;;;;-2.84;73.08;99990.13;4996927;28;102743;-77
2024/01/20 08:04:33;;;;;;;27.23;15.05;;;;;;;-2.86;73.11;99984.13;5000261;28;104248;-77
2024/01/20 08:07:01;;;;;;;27.02;18.67;;;;;;;-2.78;73.27;99976.09;5020777;28;103226;-77
2024/01/20 08:09:31;;;;;;;29.92;20.38;;;;;;;-2.69;73.25;99982.72;4993754;28;102843;-76
2024/01/20 08:11:59;;;;;;;26.90;15.90;;;;;;;-2.75;72.83;99983.78;5020842;28;102629;-77
2024/01/20 08:14:27;;;;;;;32.42;15.20;;;;;;;-2.86;73.00;99988.47;4995490;28;104059;-77
2024/01/20 08:16:54;;;;;;;31.63;16.10;;;;;;;-2.81;73.18;99988.34;4997506;28;103428;-77
2024/01/20 08:19:22;;;;;;;30.35;17.17;;;;;;;-2.82;73.07;99992.66;5017193;28;103232;-77
2024/01/20 08:21:51;;;;;;;31.95;17.77;;;;;;;-2.90;73.27;100000.69;5024986;28;102592;-77
2024/01/20 08:24:18;;;;;;;27.48;14.43;;;;;;;-2.87;73.23;99995.41;5011852;28;102822;-76
2024/01/20 08:26:48;;;;;;;32.40;17.15;;;;;;;-2.78;73.47;99999.44;5016453;28;103447;-76
2024/01/20 08:29:22;;;;;;;35.75;23.58;;;;;;;-2.74;73.25;100000.19;4996614;28;103409;-76
2024/01/20 08:31:50;;;;;;;33.67;21.80;;;;;;;-2.67;73.49;99991.31;5013187;27;103071;-76
2024/01/20 08:34:18;;;;;;;31.13;17.88;;;;;;;-2.73;72.92;99994.94;4998437;28;102723;-78
2024/01/20 08:36:50;;;;;;;31.70;16.25;;;;;;;-2.88;73.09;99998.91;5015363;28;102651;-77
2024/01/20 08:39:19;;;;;;;28.60;20.50;;;;;;;-2.89;73.30;100004.16;5009912;28;103231;-81
2024/01/20 08:41:51;;;;;;;27.02;14.48;;;;;;;-2.86;72.82;100012.66;5017980;28;102659;-77
2024/01/20 08:44:18;;;;;;;33.05;16.40;;;;;;;-2.80;72.88;100015.94;5011136;28;104406;-80
2024/01/20 08:46:47;;;;;;;31.77;22.42;;;;;;;-2.81;73.30;100025.47;4987453;28;103267;-80
2024/01/20 08:49:22;;;;;;;34.58;17.98;;;;;;;-2.74;72.79;100021.81;5019392;28;103268;-77
2024/01/20 08:51:51;;;;;;;31.23;15.23;;;;;;;-3.25;73.25;100036.38;4999450;28;103891;-78
2024/01/20 08:54:23;;;;;;;31.02;17.15;;;;;;;-3.03;73.70;100040.88;4997907;28;102786;-75
2024/01/20 08:56:53;;;;;;;26.88;15.48;;;;;;;-3.33;74.36;100035.75;4998382;28;103835;-75
2024/01/20 08:59:21;;;;;;;33.63;15.90;;;;;;;-3.06;75.00;100041.81;5010989;28;103354;-74
2024/01/20 09:06:17;;;;;;;29.77;15.80;;;;;;;-2.72;73.30;100050.28;5010350;28;103191;-74
2024/01/20 09:08:54;;;;;;;37.60;18.02;;;;;;;-2.77;72.60;100049.56;5010847;28;103310;-74
2024/01/20 09:11:22;;;;;;;37.05;25.60;;;;;;;-3.02;72.91;100055.53;4997588;28;103253;-74
2024/01/20 09:13:53;;;;;;;33.08;24.52;;;;;;;-2.86;73.44;100056.72;5012093;28;102703;-74
2024/01/20 09:16:21;;;;;;;33.25;16.55;;;;;;;-2.91;73.12;100058.66;5018628;28;103334;-72
2024/01/20 09:18:50;;;;;;;31.20;16.02;;;;;;;-2.86;73.67;100063.69;5018073;28;103428;-72
2024/01/20 09:21:19;;;;;;;31.52;17.42;;;;;;;-2.67;73.24;100063.94;5000548;28;103209;-72
2024/01/20 09:23:47;;;;;;;30.33;16.98;;;;;;;-2.95;72.44;100059.63;5014158;28;102611;-79
2024/01/20 09:26:16;;;;;;;32.80;21.52;;;;;;;-2.83;73.32;100056.66;5017362;28;103551;-77
2024/01/20 09:33:05;;;;;;;32.90;16.90;;;;;;;-2.64;72.42;100068.19;5012851;28;102764;-78
2024/01/20 09:35:34;;;;;;;29.88;15.98;;;;;;;-2.53;71.96;100063.47;5008251;28;102765;-79
2024/01/20 09:38:03;;;;;;;34.22;18.77;;;;;;;-2.49;71.85;100072.81;5003337;28;102873;-84
2024/01/20 09:40:32;;;;;;;35.00;17.50;;;;;;;-2.33;72.07;100073.19;5024316;28;102524;-79
2024/01/20 09:43:01;;;;;;;36.22;24.25;;;;;;;-2.21;71.74;100072.75;4998442;28;104338;-81
2024/01/20 09:45:31;;;;;;;31.55;18.42;;;;;;;-2.23;71.42;100079.72;5025836;28;102679;-83
2024/01/20 09:47:59;;;;;;;27.85;16.05;;;;;;;-2.11;71.05;100082.81;5025092;28;103808;-82
2024/01/20 09:50:28;;;;;;;39.13;25.30;;;;;;;-2.12;70.41;100073.31;5021419;28;103272;-81
2024/01/20 09:52:59;;;;;;;33.53;22.20;;;;;;;-2.00;71.26;100073.75;4999941;28;103427;-79
2024/01/20 09:55:28;;;;;;;32.85;22.73;;;;;;;-2.00;71.14;100085.88;5022705;28;102666;-81
2024/01/20 09:57:58;;;;;;;36.30;20.10;;;;;;;-1.93;70.21;100092.53;5005677;28;104517;-84
2024/01/20 10:00:26;;;;;;;30.98;16.48;;;;;;;-1.86;70.79;100103.56;5020152;28;103401;-83
2024/01/20 10:02:55;;;;;;;37.58;23.98;;;;;;;-1.89;70.23;100104.50;5005233;28;103273;-83
2024/01/20 10:05:25;;;;;;;32.92;22.52;;;;;;;-1.86;70.06;100101.81;5008078;28;102661;-83
2024/01/20 10:07:54;;;;;;;32.63;23.30;;;;;;;-1.76;70.05;100085.91;5003874;28;102630;-83
2024/01/20 10:10:25;;;;;;;37.53;24.23;;;;;;;-1.67;69.71;100082.97;5009145;28;103455;-84
2024/01/20 10:12:54;;;;;;;31.50;17.17;;;;;;;-1.78;69.17;100079.91;5004018;28;104288;-85
2024/01/20 10:15:26;;;;;;;30.40;17.48;;;;;;;-1.74;68.87;100089.28;5000044;28;102658;-79
2024/01/20 10:18:00;;;;;;;31.20;20.70;;;;;;;-1.59;69.43;100086.13;5010502;28;104647;-84
2024/01/20 10:20:34;;;;;;;32.78;23.58;;;;;;;-1.48;69.52;100083.16;5013725;27;103376;-80
2024/01/20 10:23:05;;;;;;;31.75;22.25;;;;;;;-1.32;68.51;100093.81;5029890;28;103288;-86
2024/01/20 10:25:33;;;;;;;30.50;22.35;;;;;;;-1.27;68.79;100091.88;5002208;28;102727;-85
2024/01/20 10:28:01;;;;;;;31.73;22.13;;;;;;;-1.03;67.51;100097.03;5004869;28;102702;-85
2024/01/20 10:30:30;;;;;;;25.70;18.65;;;;;;;-0.85;67.37;100092.88;5016490;28;104242;-85
2024/01/20 10:32:59;;;;;;;29.13;20.00;;;;;;;-0.92;67.10;100105.25;5021696;28;103276;-83
2024/01/20 10:35:30;;;;;;;32.15;23.38;;;;;;;-1.07;67.25;100093.72;5002990;28;102770;-85
2024/01/20 10:38:01;;;;;;;31.65;20.77;;;;;;;-0.70;66.85;100091.41;5019455;28;104247;-85
2024/01/20 10:40:33;;;;;;;25.60;15.85;;;;;;;-0.67;66.78;100097.34;5005014;28;104171;-85
2024/01/20 10:43:06;;;;;;;30.08;21.35;;;;;;;-0.54;65.69;100087.28;5018129;28;103300;-85
2024/01/20 10:45:42;;;;;;;33.88;18.20;;;;;;;-0.41;65.14;100092.78;5001809;28;102604;-81
2024/01/20 10:48:14;;;;;;;32.38;21.60;;;;;;;-0.46;66.22;100086.09;5033743;28;103967;-87
2024/01/20 10:50:46;;;;;;;30.95;22.00;;;;;;;-0.63;65.56;100092.81;5028048;28;103325;-87
2024/01/20 10:53:14;;;;;;;29.23;20.63;;;;;;;-0.32;65.19;100088.97;5008589;28;103235;-85
2024/01/20 10:55:45;;;;;;;30.75;20.88;;;;;;;-0.31;65.12;100082.84;5001064;28;103259;-84
2024/01/20 10:58:16;;;;;;;30.98;22.20;;;;;;;-0.24;63.78;100083.44;5003398;28;104082;-80
2024/01/20 11:00:45;;;;;;;32.10;22.05;;;;;;;-0.45;65.25;100074.78;5002003;28;104445;-83
2024/01/20 11:03:14;;;;;;;26.33;19.75;;;;;;;-0.03;64.56;100071.25;5011255;28;102651;-87
2024/01/20 11:05:46;;;;;;;29.83;20.42;;;;;;;0.24;63.33;100069.19;4999518;28;102784;-87
2024/01/20 11:08:23;;;;;;;29.53;17.67;;;;;;;0.38;63.58;100071.19;4996518;28;102791;-84
2024/01/20 11:10:54;;;;;;;30.98;20.00;;;;;;;0.49;63.94;100062.88;4995963;28;104394;-83
2024/01/20 11:13:24;;;;;;;31.85;21.75;;;;;;;0.60;62.84;100064.97;5012519;28;103223;-83
2024/01/20 11:15:53;;;;;;;33.28;22.95;;;;;;;0.38;61.52;100060.75;5010550;28;102693;-85
2024/01/20 11:18:23;;;;;;;32.13;22.58;;;;;;;0.44;63.38;100057.84;5018399;28;102676;-86
2024/01/20 11:20:57;;;;;;;33.53;22.33;;;;;;;0.74;62.91;100056.53;5000336;28;104321;-83
2024/01/20 11:23:26;;;;;;;32.38;21.92;;;;;;;0.77;62.21;100056.38;5023848;27;103273;-84